Aérodrome :
LOGIN :

S'inscrire | Disclaimer

   EN    FR    IT 

 










Légende :    VFR   VFR Marginal   IFR   IFR Intensif   IFR Très Intensif
Visi : 
Plafond : 
>= 8 km
>= 3000ft
5 à 8 km
1000 à 3000 ft
1500m à 5 km
500 à 1000 ft
800 à 1500m
200 à 500 ft
< 800m
< 200 ft
Symboles :   Orages  Brouillard  Fortes neiges  Fortes précipitations  Vent > 20 kt
SIGMETs :   Divers  Orages  Givrage  Turbulence  Onde Orograph.  Cendres Volcan.






- Altitude de l'aérodrome : 84 ft


LFBC - Cazaux

DERNIER METAR :
  • 231900Z AUTO 33017KT 270V360 9999 -RA FEW034/// SCT043/// BKN052/// ///CB 07/03 Q1002

METARs EXPIRÉS :
  • 231830Z AUTO 27013G25KT 9999 FEW024/// BKN032/// BKN064/// ///CB 07/04 Q1001
  • 231800Z AUTO 30010KT 250V330 5000 +RA BR FEW022/// SCT029/// BKN037/// ///CB 07/05 Q1001
  • 231730Z AUTO 26013KT 9999 SCT039/// BKN050/// BKN072/// ///CB 08/04 Q1001
  • 231700Z AUTO 25020G37KT 220V280 9999 SCT024/// BKN033/// BKN044/// ///CB 09/05 Q1001
  • 231630Z AUTO 26014KT 9999 FEW029/// SCT058/// BKN074/// ///CB 08/05 Q1001
  • 231600Z AUTO 29021G31KT 240V330 8000 2900 RA BKN025/// OVC042/// ///CB 06/03 Q1002
  • 231530Z AUTO 25010G22KT 220V290 9999 SCT023/// SCT044/// BKN064/// ///CB 08/06 Q1001
  • 231500Z AUTO 29014KT 260V320 7000 -RA SCT019/// BKN028/// BKN035/// ///CB 07/05 Q1002
  • 231430Z AUTO 25015KT 9999 SCT025/// BKN046/// BKN062/// ///CB 09/06 Q1002 TEMPO 30020G40KT 2000 TSGS BKN011 BKN015CB

TAF TAF LFBC
Valide du 23 à 09h jusqu'au 24 à 09h UTC


230800Z 2309/2409 27014KT 9999 SCT025TCU SCT050 BKN200
TEMPO 2309/2409 27015G30KT 4000 SHRA SCT014 BKN020CB BKN040
PROB30
TEMPO 2309/2409 30020G40KT 2000 TSGS BKN011 BKN015CB



MET'MAP, la Météo Aéronautique d'un coup d'oeil ! - Copyright ORBIFLY Décembre 2007 - Disclaimer

ORBIFLY MET'MAP TEAM :

Programmation & Développement : Alexandra Zaïnal
Sur une idée originale de : Baudouin d'Aumeries
Soutien technique & logistique : Manuel Goepfert
Assistance : Marc-Olivier Méhu




SOURCES & CREDITS :

   NOAA